CST,Max TemperatureF,Mean TemperatureF,Min TemperatureF,Max Dew PointF,MeanDew PointF,Min DewpointF,Max Humidity, Mean Humidity, Min Humidity, Max Sea Level PressureIn, Mean Sea Level PressureIn, Min Sea Level PressureIn, Max VisibilityMiles, Mean VisibilityMiles, Min VisibilityMiles, Max Wind SpeedMPH, Mean Wind SpeedMPH, Max Gust SpeedMPH,PrecipitationIn, CloudCover, Events, WindDirDegrees
2012-11-1,81,67,54,46,41,36,56,44,27,30.01,29.96,29.90,10,10,10,10,7,,0.00,0,,147
2012-11-2,86,70,55,53,47,39,67,44,27,29.94,29.86,29.78,10,10,10,18,9,32,0.00,0,,192
2012-11-3,68,56,45,43,35,31,68,48,26,30.19,30.12,29.96,10,10,10,13,5,21,0.00,0,,19
2012-11-4,72,53,35,38,34,29,85,54,21,30.23,30.15,30.06,10,10,10,8,2,,0.00,0,,146
2012-11-5,63,52,39,40,37,33,79,55,39,30.15,30.10,30.04,10,10,10,16,5,25,0.00,0,,330
2012-11-6,72,53,34,38,34,31,92,57,27,30.15,30.12,30.07,10,10,10,12,4,17,0.00,0,,246
2012-11-7,70,54,37,34,29,23,79,44,18,30.23,30.13,30.04,10,10,10,12,3,,0.00,0,,123
2012-11-8,80,68,55,53,43,30,53,40,34,30.01,29.90,29.82,10,10,10,24,16,33,0.00,0,,172
2012-11-9,81,72,64,59,56,52,73,56,45,29.87,29.81,29.74,10,10,10,25,19,37,0.00,0,,185
2012-11-10,77,72,66,58,56,54,73,58,48,29.89,29.77,29.66,10,10,10,30,21,43,0.00,2,,182
2012-11-11,72,52,32,59,42,25,94,78,58,30.34,29.93,29.66,10,8,2,22,11,34,0.58,6,Rain-Thunderstorm,333
2012-11-12,53,40,26,27,24,18,89,61,26,30.52,30.47,30.35,10,10,10,9,3,,0.00,0,,198
2012-11-13,57,44,32,28,24,18,75,46,22,30.50,30.41,30.32,10,10,10,13,7,20,0.00,0,,178
2012-11-14,62,50,37,29,27,24,62,43,25,30.39,30.32,30.25,10,10,0,15,8,20,0.00,0,,175
2012-11-15,64,52,41,35,31,29,65,47,31,30.37,30.28,30.22,10,10,10,13,8,,0.00,0,,155
2012-11-16,63,48,33,38,31,27,85,54,26,30.44,30.38,30.35,10,10,7,7,3,,0.00,0,,138
2012-11-17,64,53,42,31,29,26,65,42,24,30.38,30.31,30.25,10,10,10,17,9,26,0.00,0,,170
2012-11-18,66,58,50,43,34,27,64,42,32,30.25,30.17,30.10,10,10,10,21,13,30,0.00,3,Rain,170
2012-11-19,73,63,53,52,47,39,86,60,48,30.15,30.11,30.07,10,10,7,14,9,21,0.01,1,,196
2012-11-20,73,58,44,52,46,40,100,78,34,30.25,30.19,30.14,10,5,0,6,1,,0.00,1,Fog,185
2012-11-21,75,64,53,49,44,41,66,49,30,30.25,30.14,29.99,10,10,10,18,9,26,0.00,0,,172
2012-11-22,77,68,57,53,48,37,67,49,40,30.26,29.99,29.87,10,10,9,22,15,31,0.00,1,Rain,195
2012-11-23,55,44,30,36,24,17,71,45,25,30.55,30.46,30.29,10,10,10,14,7,23,0.00,1,,10
2012-11-24,61,44,28,22,20,17,75,43,19,30.46,30.23,29.98,10,10,10,17,7,23,0.00,0,,183
2012-11-25,66,55,44,35,29,20,61,40,30,29.96,29.88,29.82,10,10,10,13,8,,0.00,0,,166
2012-11-26,53,45,35,34,29,22,77,57,39,30.43,30.12,29.86,10,10,9,15,8,26,0.00,1,,23
2012-11-27,50,38,25,26,25,22,88,65,36,30.51,30.41,30.31,10,8,3,9,4,,0.00,0,,160
2012-11-28,64,47,30,36,32,23,79,55,34,30.39,30.28,30.15,10,10,8,20,7,25,0.00,0,,161
2012-11-29,71,60,48,42,37,33,64,46,33,30.14,30.05,29.96,10,10,10,23,16,31,0.00,0,,184
2012-11-30,71,60,48,56,49,40,86,70,47,30.07,30.00,29.93,10,7,4,14,10,24,0.00,0,,159